Time;durP1;ratioP1;P1;durP2;ratioP2;P2;SDS_P1;SDS_P2;PMS_P1;PMS_P2;Temp;Humidity;BMP_temperature;BMP_pressure;BME280_temperature;BME280_humidity;BME280_pressure;Samples;Min_cycle;Max_cycle;Signal;HPM_P1;HPM_P2
2022/05/05 00:00:14;;;;;;;6.20;3.38;;;14.50;70.50;;;;;;5128806;27;45192;-81
2022/05/05 00:02:41;;;;;;;13.75;3.63;;;14.40;70.60;;;;;;5128093;27;47842;-81
2022/05/05 00:05:09;;;;;;;7.10;3.55;;;14.30;71.60;;;;;;5127553;27;45196;-82
2022/05/05 00:07:37;;;;;;;9.32;3.92;;;14.20;73.20;;;;;;5118675;27;45308;-81
2022/05/05 00:14:23;;;;;;;9.52;4.10;;;14.10;73.10;;;;;;5117563;27;45227;-81
2022/05/05 00:15:36;;;;;;;7.38;3.53;;;14.00;74.10;;;;;;5127353;27;45359;-81
2022/05/05 00:18:03;;;;;;;8.32;4.05;;;14.00;74.50;;;;;;5128729;27;45233;-81
2022/05/05 00:20:30;;;;;;;8.40;3.70;;;14.00;74.30;;;;;;5127150;27;45349;-81
2022/05/05 00:22:58;;;;;;;12.25;3.85;;;14.00;74.40;;;;;;5114502;27;47525;-82
2022/05/05 00:25:25;;;;;;;8.57;3.80;;;14.00;74.80;;;;;;5128241;27;45255;-82
2022/05/05 00:27:52;;;;;;;9.23;3.67;;;13.90;74.90;;;;;;5110346;27;45271;-81
2022/05/05 00:30:19;;;;;;;9.00;3.95;;;13.90;75.90;;;;;;5126202;27;45451;-82
2022/05/05 00:32:46;;;;;;;7.15;3.20;;;13.90;76.40;;;;;;5109008;27;46213;-82
2022/05/05 00:35:12;;;;;;;8.23;3.58;;;13.90;76.50;;;;;;5126121;27;45300;-82
2022/05/05 00:37:39;;;;;;;11.73;3.95;;;13.80;76.20;;;;;;5123125;27;45275;-81
2022/05/05 00:40:09;;;;;;;12.60;3.90;;;13.90;75.60;;;;;;5125492;27;45251;-81
2022/05/05 00:42:36;;;;;;;7.40;3.40;;;13.90;76.10;;;;;;5122874;27;48401;-82
2022/05/05 00:45:04;;;;;;;7.85;4.10;;;14.00;75.90;;;;;;5138177;27;45219;-82
2022/05/05 00:47:31;;;;;;;10.73;3.97;;;14.00;76.40;;;;;;5130782;27;45270;-82
2022/05/05 00:49:59;;;;;;;8.10;4.07;;;14.00;76.90;;;;;;5129954;27;45483;-82
2022/05/05 00:52:26;;;;;;;7.15;4.05;;;14.00;77.20;;;;;;5131944;27;46317;-82
2022/05/05 00:54:53;;;;;;;8.40;3.80;;;13.90;76.10;;;;;;5129431;27;45137;-82
2022/05/05 00:57:21;;;;;;;5.72;3.53;;;13.90;76.70;;;;;;5111626;27;45245;-82
2022/05/05 00:59:49;;;;;;;7.82;4.03;;;13.80;77.10;;;;;;5126231;27;45307;-82
2022/05/05 01:02:16;;;;;;;8.23;3.30;;;13.80;77.00;;;;;;5131687;27;47012;-82
2022/05/05 01:04:46;;;;;;;5.45;3.15;;;13.90;76.90;;;;;;5129412;27;45411;-82
2022/05/05 01:07:13;;;;;;;11.15;3.65;;;13.90;76.90;;;;;;5131038;27;45252;-82
2022/05/05 01:09:41;;;;;;;7.53;3.33;;;13.80;78.30;;;;;;5130234;27;45356;-81
2022/05/05 01:12:09;;;;;;;6.05;2.97;;;13.90;78.90;;;;;;5130193;27;46571;-82
2022/05/05 01:14:37;;;;;;;6.82;3.15;;;13.90;78.30;;;;;;5130644;27;45345;-82
2022/05/05 01:17:06;;;;;;;9.68;3.08;;;13.90;78.80;;;;;;5130436;27;45189;-81
2022/05/05 01:19:35;;;;;;;6.45;3.30;;;13.90;78.30;;;;;;5129149;27;45168;-81
2022/05/05 01:22:05;;;;;;;8.98;3.45;;;13.90;78.80;;;;;;5128521;27;46609;-82
2022/05/05 01:30:01;;;;;;;6.28;3.65;;;13.80;79.60;;;;;;5121565;27;45278;-81
2022/05/05 01:32:31;;;;;;;7.57;3.70;;;13.80;78.40;;;;;;5128851;27;47992;-81
2022/05/05 01:34:58;;;;;;;8.52;3.42;;;13.80;78.20;;;;;;5127395;27;45239;-81
2022/05/05 01:37:26;;;;;;;7.10;2.97;;;13.80;78.40;;;;;;5133690;27;45188;-82
2022/05/05 01:39:53;;;;;;;6.78;3.28;;;13.80;79.00;;;;;;5128973;27;45616;-81
2022/05/05 01:42:20;;;;;;;4.88;2.97;;;13.80;78.40;;;;;;5129018;27;47032;-82
2022/05/05 01:44:47;;;;;;;6.00;2.80;;;13.80;78.50;;;;;;5129534;27;45395;-81
2022/05/05 01:47:14;;;;;;;8.50;3.70;;;13.80;78.00;;;;;;5132027;27;45204;-81
2022/05/05 01:49:43;;;;;;;6.82;3.60;;;13.80;78.50;;;;;;5129807;27;45468;-82
2022/05/05 01:52:10;;;;;;;9.75;3.65;;;13.80;78.40;;;;;;5130103;27;45224;-82
2022/05/05 01:54:38;;;;;;;6.55;2.78;;;13.80;78.40;;;;;;5128955;27;45224;-82
2022/05/05 01:57:06;;;;;;;7.15;3.25;;;13.80;78.70;;;;;;5121066;27;45265;-82
2022/05/05 01:59:33;;;;;;;7.57;3.47;;;13.80;78.80;;;;;;5117062;27;45430;-81
2022/05/05 02:02:00;;;;;;;9.77;2.90;;;13.80;78.90;;;;;;5129469;27;45252;-81
2022/05/05 02:04:27;;;;;;;8.30;3.53;;;13.90;77.90;;;;;;5128228;27;45391;-81
2022/05/05 02:06:54;;;;;;;6.80;3.00;;;13.90;77.90;;;;;;5122652;27;45221;-81
2022/05/05 02:09:20;;;;;;;4.68;2.80;;;13.90;78.10;;;;;;5128216;27;45365;-81
2022/05/05 02:11:49;;;;;;;9.35;3.67;;;13.90;78.90;;;;;;5130926;27;45386;-81
2022/05/05 02:14:16;;;;;;;8.55;3.28;;;13.80;78.80;;;;;;5125967;27;45233;-81
2022/05/05 02:16:43;;;;;;;7.68;3.22;;;13.80;79.20;;;;;;5130918;27;45211;-81
2022/05/05 02:19:09;;;;;;;7.45;3.42;;;13.70;78.50;;;;;;5129118;27;45110;-81
2022/05/05 02:21:36;;;;;;;11.57;3.85;;;13.80;78.80;;;;;;5130337;27;46509;-81
2022/05/05 02:24:03;;;;;;;7.43;3.50;;;13.80;78.90;;;;;;5128510;27;45349;-82
2022/05/05 02:26:30;;;;;;;7.95;3.45;;;13.80;79.40;;;;;;5130780;27;45267;-81
2022/05/05 02:28:58;;;;;;;7.82;3.35;;;13.80;79.10;;;;;;5129577;27;45365;-81
2022/05/05 02:31:25;;;;;;;15.10;3.70;;;13.80;79.70;;;;;;5116865;27;47444;-82
2022/05/05 02:33:52;;;;;;;8.15;3.22;;;13.80;80.40;;;;;;5118580;27;45199;-81
2022/05/05 02:39:03;;;;;;;5.60;3.40;;;13.80;79.30;;;;;;5127021;27;45170;-81
2022/05/05 02:41:30;;;;;;;5.82;3.35;;;13.80;79.40;;;;;;5127392;27;45278;-81
2022/05/05 02:43:58;;;;;;;7.15;3.05;;;13.80;78.80;;;;;;5128758;27;45330;-82
2022/05/05 02:46:25;;;;;;;6.88;3.10;;;13.80;78.90;;;;;;5129108;27;45386;-81
2022/05/05 02:48:52;;;;;;;7.18;2.90;;;13.80;79.00;;;;;;5128252;27;45182;-81
2022/05/05 02:51:18;;;;;;;8.60;3.13;;;13.80;78.20;;;;;;5125796;27;46474;-81
2022/05/05 02:56:30;;;;;;;7.15;2.88;;;13.80;77.90;;;;;;5128444;27;45188;-82
2022/05/05 02:58:58;;;;;;;11.93;3.50;;;13.80;78.30;;;;;;5129691;27;45476;-82
2022/05/05 03:01:24;;;;;;;9.68;3.30;;;13.80;80.30;;;;;;5126973;27;46858;-82
2022/05/05 03:03:51;;;;;;;7.68;3.15;;;13.80;80.00;;;;;;5128950;27;45207;-82
2022/05/05 03:06:18;;;;;;;6.18;2.70;;;13.70;79.30;;;;;;5128021;27;45157;-82
2022/05/05 03:08:45;;;;;;;11.82;3.30;;;13.80;80.00;;;;;;5128009;27;45443;-82
2022/05/05 03:11:12;;;;;;;4.07;2.72;;;13.80;80.70;;;;;;5127059;27;47391;-82
2022/05/05 03:13:39;;;;;;;6.68;3.30;;;13.80;81.10;;;;;;5129939;27;45300;-82
2022/05/05 03:16:07;;;;;;;8.55;3.45;;;13.70;82.00;;;;;;5125793;27;45442;-83
2022/05/05 03:18:34;;;;;;;7.28;2.80;;;13.70;81.00;;;;;;5116219;27;45872;-82
2022/05/05 03:21:01;;;;;;;6.43;3.33;;;13.70;79.50;;;;;;5128764;27;46307;-82
2022/05/05 03:23:28;;;;;;;6.90;2.78;;;13.70;80.40;;;;;;5126951;27;45368;-82
2022/05/05 03:25:55;;;;;;;10.05;3.40;;;13.70;79.90;;;;;;5134449;27;45156;-82
2022/05/05 03:28:21;;;;;;;5.75;3.38;;;13.70;80.10;;;;;;5133489;27;45274;-82
2022/05/05 03:30:49;;;;;;;8.68;2.90;;;13.70;81.00;;;;;;5128683;27;48249;-82
2022/05/05 03:33:17;;;;;;;11.82;3.40;;;13.70;80.80;;;;;;5126635;27;45223;-82
2022/05/05 03:35:44;;;;;;;6.85;2.97;;;13.80;81.60;;;;;;5127190;27;45150;-82
2022/05/05 03:38:12;;;;;;;7.60;3.00;;;13.80;81.70;;;;;;5128528;27;45184;-82
2022/05/05 03:40:38;;;;;;;7.63;3.35;;;13.70;81.90;;;;;;5128646;27;45460;-83
2022/05/05 03:43:05;;;;;;;7.07;3.40;;;13.70;80.60;;;;;;5126097;27;45300;-82
2022/05/05 03:45:32;;;;;;;7.03;3.58;;;13.70;81.30;;;;;;5127896;27;45405;-82
2022/05/05 03:47:59;;;;;;;7.07;3.45;;;13.60;82.20;;;;;;5128325;27;45317;-82
2022/05/05 03:50:27;;;;;;;11.02;3.15;;;13.70;83.10;;;;;;5124060;27;46272;-82
2022/05/05 03:52:54;;;;;;;10.88;3.53;;;13.60;84.00;;;;;;5119729;27;45250;-82
2022/05/05 03:55:21;;;;;;;13.70;3.83;;;13.70;83.50;;;;;;5111018;27;45146;-82
2022/05/05 03:57:48;;;;;;;10.15;4.07;;;13.60;83.30;;;;;;5125951;27;45542;-82
2022/05/05 04:00:16;;;;;;;7.05;3.70;;;13.70;83.10;;;;;;5109351;27;46580;-82
2022/05/05 04:02:42;;;;;;;7.20;3.85;;;13.60;83.60;;;;;;5123981;27;45660;-82
2022/05/05 04:05:10;;;;;;;9.35;3.83;;;13.50;84.70;;;;;;5125186;27;45332;-83
2022/05/05 04:07:38;;;;;;;11.32;4.50;;;13.40;84.30;;;;;;5120508;27;45512;-83
2022/05/05 04:10:06;;;;;;;8.15;4.20;;;13.40;85.20;;;;;;5121634;27;47164;-82
2022/05/05 04:12:33;;;;;;;10.55;4.40;;;13.50;85.00;;;;;;5128210;27;45286;-82
2022/05/05 04:15:00;;;;;;;8.68;4.38;;;13.40;84.90;;;;;;5128208;27;45173;-82
2022/05/05 04:17:27;;;;;;;9.10;4.55;;;13.30;85.10;;;;;;5123998;27;45464;-82
2022/05/05 04:19:54;;;;;;;8.45;4.32;;;13.40;85.20;;;;;;5132476;27;47242;-82
2022/05/05 04:22:22;;;;;;;9.40;4.05;;;13.40;84.30;;;;;;5133723;27;45961;-82
2022/05/05 04:24:50;;;;;;;10.95;3.78;;;13.30;84.90;;;;;;5128376;27;45174;-82
2022/05/05 04:27:17;;;;;;;10.70;4.47;;;13.40;84.50;;;;;;5125650;27;45132;-82
2022/05/05 04:29:44;;;;;;;12.77;4.90;;;13.30;84.80;;;;;;5106082;27;46187;-82
2022/05/05 04:32:11;;;;;;;12.45;5.00;;;13.20;85.50;;;;;;5120485;27;45429;-82
2022/05/05 04:34:38;;;;;;;12.50;5.32;;;13.20;85.70;;;;;;5128624;27;45262;-83
2022/05/05 04:37:05;;;;;;;12.70;5.13;;;13.10;86.40;;;;;;5124281;27;45423;-82
2022/05/05 04:39:31;;;;;;;9.98;4.70;;;13.10;86.50;;;;;;5118407;27;46398;-82
2022/05/05 04:42:00;;;;;;;8.60;5.03;;;13.10;86.70;;;;;;5127340;27;45153;-84
2022/05/05 04:44:26;;;;;;;9.98;4.70;;;13.10;87.00;;;;;;5127635;27;45230;-83
2022/05/05 04:46:53;;;;;;;15.57;4.80;;;13.10;81.90;;;;;;5119040;27;45476;-82
2022/05/05 04:49:20;;;;;;;7.55;4.10;;;12.90;83.60;;;;;;5118183;27;46610;-82
2022/05/05 04:51:47;;;;;;;10.25;4.35;;;12.90;83.40;;;;;;5126349;27;45152;-81
2022/05/05 04:54:13;;;;;;;6.90;3.95;;;13.00;82.50;;;;;;5123866;27;45453;-82
2022/05/05 04:56:40;;;;;;;9.27;3.65;;;13.50;80.00;;;;;;5127930;27;45171;-82
2022/05/05 04:59:08;;;;;;;9.35;4.55;;;13.80;79.30;;;;;;5122133;27;47192;-82
2022/05/05 05:01:35;;;;;;;9.68;4.90;;;13.80;79.40;;;;;;5120151;27;45376;-81
2022/05/05 05:04:03;;;;;;;10.95;5.15;;;13.40;83.80;;;;;;5125166;27;45143;-81
2022/05/05 05:06:29;;;;;;;11.02;5.20;;;13.10;86.60;;;;;;5126202;27;45574;-81
2022/05/05 05:08:56;;;;;;;9.43;5.00;;;13.00;88.20;;;;;;5118214;27;46630;-81
2022/05/05 05:11:24;;;;;;;12.60;4.72;;;13.00;89.10;;;;;;5127581;27;45345;-82
2022/05/05 05:13:50;;;;;;;10.23;4.68;;;13.00;90.10;;;;;;5114737;27;45352;-82
2022/05/05 05:16:19;;;;;;;10.80;5.05;;;13.10;89.60;;;;;;5126278;27;45174;-82
2022/05/05 05:18:47;;;;;;;7.55;4.90;;;13.00;88.60;;;;;;5117685;27;46304;-82
2022/05/05 05:21:14;;;;;;;8.13;4.75;;;13.10;88.90;;;;;;5125742;27;45188;-82
2022/05/05 05:23:41;;;;;;;14.88;4.60;;;13.20;88.80;;;;;;5122797;27;45366;-82
2022/05/05 05:26:08;;;;;;;13.25;4.70;;;13.20;88.90;;;;;;5117719;27;45413;-81
2022/05/05 05:28:34;;;;;;;8.25;5.07;;;13.20;89.00;;;;;;5119647;27;45371;-81
2022/05/05 05:31:01;;;;;;;12.18;4.88;;;13.10;88.80;;;;;;5127438;27;45133;-81
2022/05/05 05:33:29;;;;;;;11.63;5.68;;;13.20;89.40;;;;;;5125528;27;45249;-80
2022/05/05 05:35:56;;;;;;;12.77;5.38;;;13.20;88.20;;;;;;5119416;27;45414;-82
2022/05/05 05:38:23;;;;;;;9.68;4.55;;;13.20;88.00;;;;;;5127803;27;45486;-82
2022/05/05 05:40:50;;;;;;;9.20;5.30;;;13.20;88.20;;;;;;5117637;27;45254;-81
2022/05/05 05:43:17;;;;;;;12.93;4.82;;;13.30;88.80;;;;;;5118144;27;45261;-82
2022/05/05 05:45:44;;;;;;;7.47;4.40;;;13.30;90.30;;;;;;5128302;27;45152;-80
2022/05/05 05:48:12;;;;;;;14.15;5.32;;;13.40;88.50;;;;;;5126485;27;45519;-83
2022/05/05 05:50:40;;;;;;;9.15;5.25;;;13.50;89.20;;;;;;5125269;27;45332;-81
2022/05/05 05:53:07;;;;;;;21.73;5.35;;;13.40;86.70;;;;;;5130863;27;45128;-82
2022/05/05 05:55:33;;;;;;;9.57;5.20;;;13.30;86.60;;;;;;5127199;27;45325;-82
2022/05/05 05:58:00;;;;;;;9.20;4.75;;;13.20;85.70;;;;;;5120452;27;45278;-81
2022/05/05 06:00:28;;;;;;;8.88;4.90;;;13.10;86.30;;;;;;5123277;27;45276;-82
2022/05/05 06:05:42;;;;;;;7.78;4.63;;;13.10;86.20;;;;;;5123115;27;45655;-83
2022/05/05 06:08:08;;;;;;;9.07;5.05;;;13.00;88.70;;;;;;5129986;27;46460;-82
2022/05/05 06:10:36;;;;;;;12.43;5.20;;;13.10;90.00;;;;;;5132060;27;45754;-81
2022/05/05 06:13:04;;;;;;;10.98;4.22;;;13.40;90.30;;;;;;5119226;27;45244;-80
2022/05/05 06:15:31;;;;;;;7.28;3.22;;;13.50;87.70;;;;;;5121875;27;45420;-80
2022/05/05 06:17:57;;;;;;;7.95;3.90;;;14.00;87.20;;;;;;5110322;27;47539;-80
2022/05/05 06:20:24;;;;;;;6.95;4.10;;;14.50;84.70;;;;;;5116158;27;45247;-80
2022/05/05 06:22:52;;;;;;;10.00;4.10;;;14.50;85.20;;;;;;5122506;27;45207;-79
2022/05/05 06:25:20;;;;;;;15.10;4.38;;;14.60;84.90;;;;;;5128542;27;45178;-80
2022/05/05 06:27:48;;;;;;;10.50;4.22;;;14.60;82.60;;;;;;5125115;27;45423;-82
2022/05/05 06:30:16;;;;;;;10.02;4.80;;;14.70;81.10;;;;;;5122179;27;45354;-81
2022/05/05 06:32:44;;;;;;;10.25;4.70;;;14.70;83.70;;;;;;5128297;27;45404;-82
2022/05/05 06:35:11;;;;;;;11.88;4.60;;;14.80;81.60;;;;;;5130168;27;45476;-81
2022/05/05 06:37:39;;;;;;;9.00;4.55;;;14.80;82.60;;;;;;5126872;27;47452;-81
2022/05/05 06:40:08;;;;;;;8.15;4.28;;;14.80;82.70;;;;;;5123163;27;45266;-81
2022/05/05 06:42:35;;;;;;;8.00;4.68;;;14.70;82.90;;;;;;5127306;27;45376;-80
2022/05/05 06:45:02;;;;;;;10.45;5.32;;;14.80;83.00;;;;;;5126657;27;45181;-81
2022/05/05 06:47:29;;;;;;;12.38;4.57;;;14.80;83.50;;;;;;5129935;27;47357;-81
2022/05/05 06:49:56;;;;;;;11.63;4.97;;;15.00;83.00;;;;;;5127772;27;45281;-80
2022/05/05 06:52:23;;;;;;;8.07;4.30;;;15.00;83.30;;;;;;5130144;27;45352;-79
2022/05/05 06:54:50;;;;;;;11.70;5.03;;;15.10;81.50;;;;;;5130435;27;45231;-79
2022/05/05 06:57:18;;;;;;;11.57;4.75;;;15.10;82.10;;;;;;5127019;27;46482;-79
2022/05/05 06:59:45;;;;;;;9.10;5.40;;;15.10;81.80;;;;;;5128924;27;45269;-79
2022/05/05 07:02:12;;;;;;;10.40;4.45;;;15.10;80.20;;;;;;5128218;27;45192;-79
2022/05/05 07:07:23;;;;;;;9.60;3.95;;;15.10;77.00;;;;;;5124005;27;45525;-79
2022/05/05 07:12:36;;;;;;;11.73;4.10;;;15.40;74.30;;;;;;5109999;27;45202;-79
2022/05/05 07:15:03;;;;;;;12.95;4.40;;;15.40;74.30;;;;;;5123479;27;45499;-80
2022/05/05 07:17:30;;;;;;;6.97;3.55;;;15.40;74.30;;;;;;5125332;27;47273;-78
2022/05/05 07:19:57;;;;;;;11.98;3.75;;;15.50;74.30;;;;;;5127904;27;45213;-80
2022/05/05 07:22:24;;;;;;;10.32;4.00;;;15.60;74.40;;;;;;5129875;27;45322;-78
2022/05/05 07:24:51;;;;;;;10.52;4.10;;;15.60;72.50;;;;;;5124635;27;45270;-79
2022/05/05 07:27:17;;;;;;;8.57;3.90;;;15.60;73.60;;;;;;5129323;27;47193;-79
2022/05/05 07:29:46;;;;;;;8.85;3.65;;;15.60;72.70;;;;;;5127643;27;46104;-78
2022/05/05 07:32:13;;;;;;;10.23;3.95;;;15.70;72.30;;;;;;5126118;27;46468;-78
2022/05/05 07:34:40;;;;;;;10.52;4.07;;;15.80;71.10;;;;;;5126238;27;45176;-80
2022/05/05 07:37:07;;;;;;;6.90;3.53;;;15.70;73.10;;;;;;5126813;27;46722;-78
2022/05/05 07:39:34;;;;;;;10.27;4.18;;;15.80;72.60;;;;;;5127031;27;45112;-78
2022/05/05 07:42:01;;;;;;;9.88;4.20;;;16.00;70.60;;;;;;5129084;27;45395;-78
2022/05/05 07:44:28;;;;;;;14.63;3.65;;;16.00;70.40;;;;;;5124781;27;45435;-78
2022/05/05 07:46:56;;;;;;;12.10;3.75;;;16.00;70.00;;;;;;5127769;27;45928;-78
2022/05/05 07:49:23;;;;;;;11.10;3.72;;;16.00;68.10;;;;;;5127538;27;45602;-78
2022/05/05 07:51:51;;;;;;;9.20;4.10;;;16.00;68.80;;;;;;5127699;27;45488;-80
2022/05/05 07:54:38;;;;;;;7.55;3.95;;;16.00;68.10;;;;;;5125285;27;46331;-78
2022/05/05 07:57:08;;;;;;;8.35;3.40;;;16.10;67.80;;;;;;5120047;27;46330;-80
2022/05/05 07:59:35;;;;;;;10.85;3.72;;;16.20;67.20;;;;;;5121697;27;45356;-80
2022/05/05 08:02:04;;;;;;;9.23;3.50;;;16.20;66.80;;;;;;5114925;27;45569;-80
2022/05/05 08:04:32;;;;;;;10.18;3.90;;;16.20;66.80;;;;;;5110980;27;45386;-81
2022/05/05 08:06:59;;;;;;;11.27;3.70;;;16.30;65.90;;;;;;5123174;27;48005;-81
2022/05/05 08:09:26;;;;;;;6.78;3.58;;;16.20;66.60;;;;;;5113181;27;45261;-81
2022/05/05 08:11:52;;;;;;;8.75;3.42;;;16.30;66.10;;;;;;5125331;27;45349;-81
2022/05/05 08:14:19;;;;;;;6.50;3.13;;;16.40;65.20;;;;;;5120391;27;45185;-80
2022/05/05 08:16:46;;;;;;;9.60;3.90;;;16.40;65.60;;;;;;5123481;27;46203;-80
2022/05/05 08:19:14;;;;;;;10.30;3.33;;;16.50;65.20;;;;;;5128459;27;45104;-80
2022/05/05 08:21:41;;;;;;;8.68;2.85;;;16.50;64.30;;;;;;5127388;27;45253;-80
2022/05/05 08:29:37;;;;;;;7.90;3.13;;;16.60;66.00;;;;;;5112423;27;45358;-80
2022/05/05 08:32:04;;;;;;;7.53;3.35;;;16.60;65.00;;;;;;5120735;27;45426;-80
2022/05/05 08:34:33;;;;;;;8.23;3.20;;;16.60;64.20;;;;;;5119216;27;45492;-80
2022/05/05 08:37:00;;;;;;;8.68;2.50;;;16.60;61.40;;;;;;5121050;27;46762;-80
2022/05/05 08:39:27;;;;;;;10.30;3.10;;;16.60;61.90;;;;;;5125104;27;45209;-79
2022/05/05 08:41:56;;;;;;;10.00;3.22;;;16.60;63.00;;;;;;5127047;27;45180;-80
2022/05/05 08:44:23;;;;;;;10.35;2.70;;;16.70;61.90;;;;;;5124982;27;45441;-80
2022/05/05 08:46:53;;;;;;;5.65;2.72;;;16.70;61.50;;;;;;5127421;27;45248;-80
2022/05/05 08:49:23;;;;;;;9.07;2.75;;;16.80;61.20;;;;;;5118055;27;45336;-80
2022/05/05 08:51:54;;;;;;;9.05;2.88;;;16.70;60.50;;;;;;5122162;27;45267;-80
2022/05/05 08:54:22;;;;;;;7.20;2.83;;;16.80;62.10;;;;;;5114494;27;45270;-80
2022/05/05 08:56:50;;;;;;;6.72;3.38;;;16.70;60.30;;;;;;5127802;27;47379;-81
2022/05/05 08:59:17;;;;;;;8.85;3.53;;;16.50;61.00;;;;;;5117029;27;45213;-80
2022/05/05 09:01:45;;;;;;;10.55;3.75;;;16.50;61.10;;;;;;5127625;27;45167;-80
2022/05/05 09:04:12;;;;;;;6.38;3.15;;;16.50;61.80;;;;;;5123073;27;45479;-80
2022/05/05 09:06:44;;;;;;;8.45;3.17;;;16.30;61.50;;;;;;5128227;27;45522;-80
2022/05/05 09:09:28;;;;;;;7.78;3.60;;;16.60;62.30;;;;;;5125176;27;45230;-80
2022/05/05 09:12:09;;;;;;;9.75;3.63;;;16.80;61.40;;;;;;5117874;27;45328;-83
2022/05/05 09:14:37;;;;;;;13.63;4.30;;;16.60;60.30;;;;;;5130502;27;45500;-81
2022/05/05 09:17:06;;;;;;;8.98;3.88;;;16.60;60.60;;;;;;5119900;27;47998;-81
2022/05/05 09:19:36;;;;;;;10.23;3.65;;;16.50;61.40;;;;;;5130045;27;45289;-82
2022/05/05 09:22:04;;;;;;;9.25;4.18;;;16.60;60.70;;;;;;5124117;27;45206;-81
2022/05/05 09:24:41;;;;;;;7.65;3.42;;;16.70;60.80;;;;;;5119193;27;45332;-81
2022/05/05 09:27:25;;;;;;;7.63;3.63;;;16.70;58.50;;;;;;5127116;27;48269;-82
2022/05/05 09:30:01;;;;;;;9.70;3.50;;;16.60;57.50;;;;;;5128372;27;45529;-81
2022/05/05 09:32:29;;;;;;;11.77;4.00;;;16.70;60.10;;;;;;5120721;27;45869;-82
2022/05/05 09:35:00;;;;;;;12.57;4.55;;;16.80;63.20;;;;;;5127138;27;45472;-82
2022/05/05 09:37:26;;;;;;;10.63;3.47;;;16.70;60.00;;;;;;5129827;27;46004;-81
2022/05/05 09:39:59;;;;;;;13.00;5.78;;;16.70;60.80;;;;;;5121815;27;45315;-82
2022/05/05 09:42:40;;;;;;;12.63;3.65;;;16.70;61.00;;;;;;5121147;27;45154;-82
2022/05/05 09:45:30;;;;;;;9.82;3.72;;;16.90;61.20;;;;;;5128739;27;45201;-81
2022/05/05 09:47:58;;;;;;;13.27;4.30;;;17.00;61.50;;;;;;5124576;27;47046;-79
2022/05/05 09:50:27;;;;;;;7.97;3.90;;;17.00;61.60;;;;;;5119729;27;45256;-81
2022/05/05 09:58:34;;;;;;;17.13;4.57;;;16.80;60.50;;;;;;5116602;27;45579;-80
2022/05/05 10:01:06;;;;;;;10.02;4.13;;;16.90;61.30;;;;;;5122860;27;45307;-79
2022/05/05 10:06:29;;;;;;;14.90;6.18;;;17.00;60.10;;;;;;5121445;27;45301;-80
2022/05/05 10:08:57;;;;;;;16.50;6.32;;;17.00;61.20;;;;;;5120491;27;46382;-81
2022/05/05 10:11:26;;;;;;;12.13;5.95;;;17.00;60.80;;;;;;5125916;27;45265;-82
2022/05/05 10:13:53;;;;;;;15.50;6.10;;;16.90;59.60;;;;;;5127929;27;46521;-82
2022/05/05 10:16:20;;;;;;;12.40;5.15;;;16.80;59.70;;;;;;5126392;27;45316;-80
2022/05/05 10:18:47;;;;;;;12.63;5.63;;;17.00;59.70;;;;;;5117783;27;47193;-81
2022/05/05 10:21:24;;;;;;;13.95;5.90;;;17.10;59.90;;;;;;5122091;27;45154;-81
2022/05/05 10:24:09;;;;;;;10.65;4.30;;;17.10;59.70;;;;;;5128695;27;45198;-81
2022/05/05 10:26:38;;;;;;;18.17;4.90;;;17.20;59.50;;;;;;5114697;27;45232;-82
2022/05/05 10:29:05;;;;;;;7.50;4.15;;;17.30;59.20;;;;;;5113874;27;45545;-82
2022/05/05 10:31:43;;;;;;;11.25;4.53;;;17.20;59.30;;;;;;5125133;27;45202;-83
2022/05/05 10:34:15;;;;;;;9.15;4.32;;;17.20;60.10;;;;;;5128628;27;45179;-81
2022/05/05 10:36:58;;;;;;;11.60;4.13;;;17.20;59.60;;;;;;5126141;27;45208;-81
2022/05/05 10:39:26;;;;;;;11.30;5.45;;;17.20;58.50;;;;;;5119964;27;46091;-80
2022/05/05 10:42:24;;;;;;;8.98;4.30;;;17.10;59.30;;;;;;5122488;27;45387;-80
2022/05/05 10:45:31;;;;;;;10.02;4.65;;;17.20;58.60;;;;;;5118620;27;45387;-81
2022/05/05 10:48:38;;;;;;;10.07;5.15;;;17.20;57.90;;;;;;5127806;27;45349;-82
2022/05/05 10:51:07;;;;;;;11.70;4.70;;;17.20;60.00;;;;;;5124074;27;45473;-81
2022/05/05 10:53:42;;;;;;;8.32;4.70;;;17.30;60.10;;;;;;5127919;27;45326;-81
2022/05/05 10:56:28;;;;;;;13.88;4.65;;;17.50;60.60;;;;;;5123069;27;45346;-81
2022/05/05 10:59:04;;;;;;;9.80;4.85;;;17.50;59.10;;;;;;5128784;27;45250;-82
2022/05/05 11:01:47;;;;;;;11.73;4.63;;;17.40;58.50;;;;;;5127449;27;48390;-82
2022/05/05 11:04:30;;;;;;;13.68;4.75;;;17.40;58.80;;;;;;5125939;27;45350;-82
2022/05/05 11:07:37;;;;;;;11.95;4.93;;;17.40;58.70;;;;;;5124917;27;45376;-82
2022/05/05 11:10:09;;;;;;;10.93;4.85;;;17.40;59.10;;;;;;5127757;27;45747;-82
2022/05/05 11:12:38;;;;;;;7.55;4.60;;;17.30;59.30;;;;;;5126246;27;46743;-82
2022/05/05 11:23:32;;;;;;;14.32;5.20;;;17.30;58.50;;;;;;5122801;27;45658;-82
2022/05/05 11:26:01;;;;;;;8.23;4.57;;;17.30;58.90;;;;;;5124199;27;45415;-82
2022/05/05 11:28:31;;;;;;;10.38;4.97;;;17.30;57.40;;;;;;5123777;27;45334;-82
2022/05/05 11:30:59;;;;;;;13.95;4.95;;;17.30;57.70;;;;;;5129514;27;45271;-82
2022/05/05 11:33:26;;;;;;;9.88;4.50;;;17.40;58.00;;;;;;5129177;27;45316;-83
2022/05/05 11:36:02;;;;;;;10.02;5.32;;;17.50;58.80;;;;;;5118584;27;45245;-83
2022/05/05 11:38:29;;;;;;;10.00;5.10;;;17.30;57.00;;;;;;5121200;27;45262;-83
2022/05/05 11:41:01;;;;;;;11.13;5.07;;;17.30;56.00;;;;;;5127846;27;45223;-83
2022/05/05 11:46:16;;;;;;;12.48;5.10;;;17.10;58.80;;;;;;5121679;27;45241;-81
2022/05/05 11:48:43;;;;;;;19.63;7.00;;;17.10;59.40;;;;;;5115810;27;45337;-81
2022/05/05 11:51:11;;;;;;;13.65;5.78;;;17.10;59.20;;;;;;5119813;27;45360;-81
2022/05/05 11:53:38;;;;;;;13.63;4.28;;;17.20;59.80;;;;;;5123679;27;45315;-81
2022/05/05 11:56:12;;;;;;;7.65;3.83;;;17.40;61.90;;;;;;5120739;27;45313;-81
2022/05/05 12:01:38;;;;;;;9.25;3.95;;;18.00;63.00;;;;;;5119347;27;45528;-81
2022/05/05 12:04:05;;;;;;;5.40;3.17;;;18.10;57.40;;;;;;5122751;27;47494;-81
2022/05/05 12:06:33;;;;;;;12.43;5.18;;;18.30;64.90;;;;;;5129287;27;45609;-82
2022/05/05 12:09:01;;;;;;;7.25;3.40;;;19.00;54.80;;;;;;5127286;27;45241;-81
2022/05/05 12:11:28;;;;;;;7.30;4.10;;;19.30;56.40;;;;;;5128460;27;45167;-81
2022/05/05 12:14:00;;;;;;;10.15;4.70;;;18.70;54.70;;;;;;5122145;27;45698;-81
2022/05/05 12:16:32;;;;;;;11.00;4.55;;;18.10;55.60;;;;;;5119951;27;45564;-81
2022/05/05 12:18:59;;;;;;;4.70;2.90;;;17.80;56.00;;;;;;5126098;27;45331;-81
2022/05/05 12:21:26;;;;;;;5.85;2.47;;;18.50;63.10;;;;;;5126937;27;45375;-82
2022/05/05 12:23:59;;;;;;;8.13;3.78;;;19.10;63.50;;;;;;5126463;27;48736;-81
2022/05/05 12:26:29;;;;;;;9.25;4.40;;;18.70;52.90;;;;;;5121112;27;45394;-82
2022/05/05 12:28:57;;;;;;;5.47;2.95;;;18.70;58.10;;;;;;5121274;27;45648;-81
2022/05/05 12:31:25;;;;;;;7.00;3.53;;;18.60;59.50;;;;;;5122755;27;45543;-81
2022/05/05 12:33:53;;;;;;;6.28;3.30;;;18.70;58.90;;;;;;5124120;27;45234;-81
2022/05/05 12:36:26;;;;;;;8.25;4.13;;;18.90;53.10;;;;;;5119690;27;45506;-81
2022/05/05 12:38:53;;;;;;;7.68;4.90;;;18.50;56.10;;;;;;5120365;27;45084;-81
2022/05/05 12:41:20;;;;;;;11.52;5.13;;;18.50;55.30;;;;;;5129250;27;45681;-81
2022/05/05 12:43:47;;;;;;;4.75;2.55;;;18.50;60.10;;;;;;5127459;27;46071;-81
2022/05/05 12:46:16;;;;;;;5.47;2.70;;;19.80;63.10;;;;;;5123470;27;45213;-81
2022/05/05 12:48:43;;;;;;;7.15;4.15;;;20.10;52.40;;;;;;5131577;27;45199;-81
2022/05/05 12:51:18;;;;;;;9.13;4.32;;;19.10;57.60;;;;;;5122324;27;45237;-81
2022/05/05 13:01:57;;;;;;;11.65;5.00;;;18.90;55.90;;;;;;5124004;27;45516;-80
2022/05/05 13:04:24;;;;;;;10.60;5.47;;;19.70;52.20;;;;;;5127797;27;47397;-80
2022/05/05 13:06:53;;;;;;;12.50;5.90;;;19.00;52.20;;;;;;5122475;27;45254;-81
2022/05/05 13:09:20;;;;;;;9.18;4.50;;;18.70;52.90;;;;;;5121878;27;45223;-80
2022/05/05 13:11:51;;;;;;;11.00;5.30;;;18.40;52.60;;;;;;5118252;27;46029;-81
2022/05/05 13:14:18;;;;;;;13.52;5.80;;;18.20;54.70;;;;;;5122942;27;45535;-80
2022/05/05 13:16:45;;;;;;;7.18;4.10;;;18.10;54.20;;;;;;5119303;27;45255;-80
2022/05/05 13:19:12;;;;;;;8.68;3.75;;;18.20;54.20;;;;;;5121555;27;45287;-80
2022/05/05 13:21:40;;;;;;;17.58;5.80;;;18.20;55.00;;;;;;5126610;27;46199;-80
2022/05/05 13:24:10;;;;;;;8.75;4.50;;;18.10;54.70;;;;;;5121826;27;48378;-80
2022/05/05 13:26:38;;;;;;;11.82;4.97;;;18.10;58.60;;;;;;5120843;27;45326;-81
2022/05/05 13:29:05;;;;;;;21.42;5.28;;;18.10;55.60;;;;;;5120289;27;45687;-81
2022/05/05 13:31:32;;;;;;;16.02;4.47;;;18.00;55.40;;;;;;5127327;27;45362;-82
2022/05/05 13:33:59;;;;;;;14.25;3.97;;;18.00;53.10;;;;;;5127368;27;47277;-82
2022/05/05 13:36:26;;;;;;;9.85;3.90;;;18.10;54.40;;;;;;5130450;27;45189;-82
2022/05/05 13:38:53;;;;;;;5.90;3.75;;;18.20;54.90;;;;;;5124169;27;45306;-81
2022/05/05 13:41:21;;;;;;;15.13;3.75;;;18.30;54.70;;;;;;5127321;27;45127;-82
2022/05/05 13:43:48;;;;;;;9.57;3.65;;;18.30;52.40;;;;;;5130460;27;47029;-81
2022/05/05 13:46:15;;;;;;;5.43;2.90;;;18.30;52.50;;;;;;5127033;27;45187;-81
2022/05/05 13:48:42;;;;;;;7.28;2.38;;;18.40;51.50;;;;;;5122768;27;45116;-81